Time;durP1;ratioP1;P1;durP2;ratioP2;P2;SDS_P1;SDS_P2;PMS_P1;PMS_P2;Temp;Humidity;BMP_temperature;BMP_pressure;BME280_temperature;BME280_humidity;BME280_pressure;Samples;Min_cycle;Max_cycle;Signal;HPM_P1;HPM_P2
2022/05/06 00:01:31;;;;;;;47.67;27.95;;;;;;;10.23;92.82;102458.31;5074009;28;20024;-72
2022/05/06 00:03:57;;;;;;;44.97;27.10;;;;;;;10.26;93.02;102454.91;5073512;28;20028;-73
2022/05/06 00:06:22;;;;;;;47.67;28.65;;;;;;;10.21;92.78;102456.59;5074149;28;20037;-72
2022/05/06 00:08:47;;;;;;;44.40;26.63;;;;;;;10.22;93.12;102460.94;5073857;28;20104;-72
2022/05/06 00:11:13;;;;;;;47.15;26.42;;;;;;;10.20;93.08;102465.28;5073390;28;20028;-72
2022/05/06 00:13:38;;;;;;;48.13;28.33;;;;;;;10.13;93.37;102466.97;5073626;28;20066;-72
2022/05/06 00:16:03;;;;;;;45.45;26.60;;;;;;;10.11;93.39;102462.66;5073401;28;20028;-72
2022/05/06 00:18:31;;;;;;;46.58;27.65;;;;;;;10.01;93.62;102467.81;5073175;28;20028;-73
2022/05/06 00:20:59;;;;;;;49.55;27.67;;;;;;;9.98;93.78;102472.16;5073724;28;20516;-72
2022/05/06 00:23:24;;;;;;;48.53;28.63;;;;;;;9.96;94.45;102466.91;5073818;28;20082;-72
2022/05/06 00:25:50;;;;;;;46.80;27.52;;;;;;;9.94;93.88;102462.53;5072645;28;20488;-72
2022/05/06 00:28:15;;;;;;;47.85;27.55;;;;;;;9.96;93.93;102468.66;5073870;28;20035;-72
2022/05/06 00:30:41;;;;;;;46.05;27.65;;;;;;;9.93;93.88;102473.84;5073543;28;20365;-72
2022/05/06 00:33:09;;;;;;;47.95;27.42;;;;;;;9.92;94.49;102475.56;5072839;28;20028;-72
2022/05/06 00:35:37;;;;;;;42.28;27.20;;;;;;;9.89;94.11;102465.13;5073334;28;20021;-72
2022/05/06 00:38:04;;;;;;;46.15;26.88;;;;;;;9.88;93.99;102471.22;5073487;28;20027;-72
2022/05/06 00:40:29;;;;;;;43.92;27.67;;;;;;;9.90;94.30;102469.47;5072837;28;20032;-72
2022/05/06 00:42:56;;;;;;;48.40;28.40;;;;;;;9.89;94.14;102466.88;5073383;28;20035;-73
2022/05/06 00:45:21;;;;;;;53.28;29.05;;;;;;;9.87;93.91;102464.25;5073318;28;20027;-73
2022/05/06 00:47:47;;;;;;;48.95;28.25;;;;;;;9.93;94.11;102471.22;5072354;28;20025;-72
2022/05/06 00:50:13;;;;;;;40.65;25.88;;;;;;;9.89;93.85;102461.66;5073265;28;20464;-72
2022/05/06 00:52:38;;;;;;;47.05;28.52;;;;;;;9.81;94.33;102464.25;5072099;28;20025;-72
2022/05/06 00:55:04;;;;;;;45.28;26.90;;;;;;;9.78;94.82;102459.88;5073172;28;20024;-72
2022/05/06 00:57:30;;;;;;;46.42;29.35;;;;;;;9.75;95.04;102464.22;5072951;28;20447;-73
2022/05/06 01:02:40;;;;;;;52.25;29.55;;;;;;;9.57;95.22;102459.72;5072904;28;20036;-73
2022/05/06 01:05:07;;;;;;;43.58;28.20;;;;;;;9.56;95.23;102474.50;5072926;28;20020;-72
2022/05/06 01:07:33;;;;;;;46.08;28.20;;;;;;;9.54;95.31;102476.19;5072128;28;20151;-72
2022/05/06 01:09:59;;;;;;;47.28;28.40;;;;;;;9.50;95.57;102478.78;5073154;28;20103;-72
2022/05/06 01:12:24;;;;;;;46.60;28.45;;;;;;;9.43;95.16;102477.88;5073188;28;20029;-72
2022/05/06 01:14:49;;;;;;;49.55;28.20;;;;;;;9.41;95.12;102474.38;5072017;28;20496;-72
2022/05/06 01:17:16;;;;;;;46.58;27.98;;;;;;;9.47;95.31;102476.16;5072981;28;20023;-72
2022/05/06 01:19:41;;;;;;;49.10;27.95;;;;;;;9.41;95.76;102473.50;5072560;28;20103;-72
2022/05/06 01:22:06;;;;;;;46.13;27.80;;;;;;;9.45;95.80;102475.25;5072247;28;20104;-72
2022/05/06 01:24:32;;;;;;;45.55;27.40;;;;;;;9.39;95.87;102470.91;5072641;28;20082;-72
2022/05/06 01:27:08;;;;;;;46.28;27.50;;;;;;;9.32;95.76;102475.19;5073077;28;20050;-72
2022/05/06 01:29:36;;;;;;;47.78;29.35;;;;;;;9.27;96.49;102471.66;5071870;28;20078;-72
2022/05/06 01:32:01;;;;;;;48.35;29.17;;;;;;;9.28;96.32;102473.41;5072755;28;20089;-72
2022/05/06 01:34:28;;;;;;;49.03;28.25;;;;;;;9.27;96.58;102476.00;5072690;28;20519;-72
2022/05/06 01:36:56;;;;;;;47.50;28.40;;;;;;;9.19;97.35;102472.47;5071787;28;20435;-72
2022/05/06 01:39:28;;;;;;;46.72;27.08;;;;;;;9.24;96.62;102476.84;5072616;28;20480;-72
2022/05/06 01:41:58;;;;;;;50.28;29.55;;;;;;;9.20;97.12;102474.22;5071544;28;20468;-72
2022/05/06 01:44:25;;;;;;;48.47;28.63;;;;;;;9.13;96.76;102466.38;5072710;28;20074;-72
2022/05/06 01:46:53;;;;;;;48.92;27.45;;;;;;;9.21;96.73;102470.75;5072367;28;20068;-72
2022/05/06 01:49:19;;;;;;;48.50;28.52;;;;;;;9.22;96.70;102475.09;5072040;28;20029;-72
2022/05/06 01:51:46;;;;;;;49.35;28.95;;;;;;;9.26;96.98;102474.28;5072453;28;20032;-72
2022/05/06 01:54:12;;;;;;;52.58;28.73;;;;;;;9.24;96.92;102465.56;5072685;28;20029;-72
2022/05/06 01:56:38;;;;;;;49.75;30.05;;;;;;;9.41;97.08;102470.91;5071328;28;20048;-72
2022/05/06 01:59:03;;;;;;;51.83;29.85;;;;;;;9.47;97.04;102482.22;5072490;28;20354;-72
2022/05/06 02:01:32;;;;;;;51.63;29.52;;;;;;;9.54;96.64;102481.41;5072426;28;20032;-72
2022/05/06 02:06:41;;;;;;;52.28;30.15;;;;;;;9.63;96.51;102478.00;5072398;28;20550;-72
2022/05/06 02:09:07;;;;;;;51.28;28.45;;;;;;;9.65;96.25;102465.00;5072445;28;20025;-72
2022/05/06 02:11:32;;;;;;;45.30;27.33;;;;;;;9.73;95.94;102472.00;5071381;28;20024;-72
2022/05/06 02:13:57;;;;;;;62.60;27.45;;;;;;;9.67;95.51;102476.28;5072333;28;20035;-72
2022/05/06 02:16:23;;;;;;;46.15;26.92;;;;;;;9.63;95.35;102475.41;5072513;28;20024;-72
2022/05/06 02:18:48;;;;;;;47.17;26.92;;;;;;;9.59;95.60;102474.50;5071238;28;20087;-72
2022/05/06 02:21:13;;;;;;;45.33;27.30;;;;;;;9.56;95.99;102471.88;5072405;28;20476;-72
2022/05/06 02:23:38;;;;;;;56.38;26.75;;;;;;;9.50;96.06;102474.44;5072076;28;20086;-72
2022/05/06 02:26:04;;;;;;;49.80;26.15;;;;;;;9.48;96.30;102478.78;5071410;28;20041;-72
2022/05/06 02:28:29;;;;;;;45.55;26.40;;;;;;;9.44;96.63;102478.75;5072146;28;20028;-72
2022/05/06 02:33:38;;;;;;;;;;;;;;;9.54;93.99;102486.63;5072469;28;20031;-72
2022/05/06 02:36:04;;;;;;;42.63;25.57;;;;;;;9.56;95.28;102482.31;5072371;28;19912;-72
2022/05/06 02:38:29;;;;;;;42.65;26.50;;;;;;;9.67;95.30;102478.91;5072345;28;20108;-72
2022/05/06 02:40:55;;;;;;;46.05;26.92;;;;;;;9.67;95.40;102481.50;5075505;28;20033;-72
2022/05/06 02:43:21;;;;;;;43.80;26.70;;;;;;;9.71;95.34;102483.25;5075728;28;20073;-72
2022/05/06 02:45:46;;;;;;;53.88;27.02;;;;;;;9.60;95.57;102476.25;5074407;28;20029;-72
2022/05/06 02:48:12;;;;;;;46.53;26.38;;;;;;;9.60;95.60;102493.59;5075780;28;20035;-72
2022/05/06 02:50:38;;;;;;;45.30;27.45;;;;;;;9.60;95.61;102491.88;5075234;28;20032;-72
2022/05/06 02:53:03;;;;;;;40.05;25.95;;;;;;;9.56;95.57;102492.72;5074628;28;20028;-72
2022/05/06 02:55:29;;;;;;;38.38;25.30;;;;;;;9.50;95.45;102490.06;5075363;28;20020;-72
2022/05/06 02:57:54;;;;;;;39.10;24.83;;;;;;;9.52;95.59;102490.97;5074888;28;20083;-72
2022/05/06 03:00:20;;;;;;;35.58;23.17;;;;;;;9.51;95.50;102490.94;5074774;28;20399;-72
2022/05/06 03:02:45;;;;;;;36.20;23.60;;;;;;;9.42;95.28;102485.66;5075357;28;20107;-72
2022/05/06 03:05:11;;;;;;;44.13;24.65;;;;;;;9.37;95.80;102483.91;5075309;28;20059;-72
2022/05/06 03:07:36;;;;;;;45.50;24.85;;;;;;;9.33;96.47;102483.88;5074172;28;20037;-72
2022/05/06 03:10:03;;;;;;;47.13;24.98;;;;;;;9.36;96.14;102491.69;5075251;28;20013;-72
2022/05/06 03:12:30;;;;;;;39.17;24.13;;;;;;;9.39;95.74;102478.72;5075096;28;20036;-72
2022/05/06 03:14:57;;;;;;;45.13;24.48;;;;;;;9.40;95.90;102487.38;5074412;28;20024;-72
2022/05/06 03:17:23;;;;;;;60.67;25.00;;;;;;;9.36;95.79;102481.28;5075245;28;20019;-72
2022/05/06 03:19:48;;;;;;;39.67;25.35;;;;;;;9.36;95.97;102479.56;5075050;28;20033;-73
2022/05/06 03:22:16;;;;;;;40.83;26.17;;;;;;;9.40;96.26;102480.44;5074432;28;20035;-72
2022/05/06 03:24:42;;;;;;;49.08;23.23;;;;;;;9.36;96.06;102481.28;5074520;28;20028;-72
2022/05/06 03:27:59;;;;;;;36.05;23.02;;;;;;;9.39;95.89;102481.31;5075049;28;20056;-72
2022/05/06 03:29:52;;;;;;;39.72;22.50;;;;;;;9.40;95.39;102482.19;5074414;28;20095;-72
2022/05/06 03:32:18;;;;;;;36.20;22.23;;;;;;;9.37;95.56;102477.81;5074978;28;20480;-72
2022/05/06 03:34:44;;;;;;;38.47;20.42;;;;;;;9.33;95.34;102481.25;5073855;28;20036;-72
2022/05/06 03:37:09;;;;;;;48.05;21.63;;;;;;;9.26;95.85;102482.94;5074915;28;20053;-72
2022/05/06 03:39:34;;;;;;;32.92;22.02;;;;;;;9.29;95.72;102485.59;5074381;28;20522;-72
2022/05/06 03:42:00;;;;;;;31.05;20.05;;;;;;;9.31;95.49;102481.25;5073762;28;20051;-72
2022/05/06 03:44:25;;;;;;;29.25;19.35;;;;;;;9.36;95.56;102486.50;5074647;28;20415;-72
2022/05/06 03:46:50;;;;;;;32.13;19.55;;;;;;;9.36;95.30;102487.38;5074484;28;20028;-72
2022/05/06 03:49:15;;;;;;;63.13;20.08;;;;;;;9.30;95.53;102487.31;5073548;28;20530;-72
2022/05/06 03:51:44;;;;;;;39.25;20.42;;;;;;;9.26;96.22;102485.56;5073482;28;20021;-72
2022/05/06 03:54:10;;;;;;;40.00;20.10;;;;;;;9.21;96.35;102491.56;5074600;28;20040;-72
2022/05/06 03:56:35;;;;;;;33.85;19.95;;;;;;;9.20;96.36;102488.09;5073070;28;20053;-72
2022/05/06 03:59:00;;;;;;;41.67;21.05;;;;;;;9.21;96.68;102491.56;5074440;28;20047;-72
2022/05/06 04:01:25;;;;;;;32.92;20.52;;;;;;;9.24;96.63;102491.59;5074218;28;20056;-72
2022/05/06 04:03:51;;;;;;;31.95;20.02;;;;;;;9.26;96.53;102485.56;5073163;28;20098;-72
2022/05/06 04:06:16;;;;;;;33.15;20.15;;;;;;;9.29;96.63;102490.78;5074245;28;20032;-72
2022/05/06 04:08:42;;;;;;;38.85;21.20;;;;;;;9.29;96.71;102496.00;5074395;28;20031;-72
2022/05/06 04:11:13;;;;;;;43.90;20.70;;;;;;;9.27;97.03;102487.28;5073496;28;20480;-72
2022/05/06 04:13:38;;;;;;;31.92;19.98;;;;;;;9.31;96.49;102490.78;5073824;28;20036;-72
2022/05/06 04:16:04;;;;;;;33.85;20.80;;;;;;;9.28;96.89;102501.16;5073853;28;20384;-72
2022/05/06 04:18:30;;;;;;;37.03;20.75;;;;;;;9.27;96.54;102494.22;5073180;28;20020;-72
2022/05/06 04:23:39;;;;;;;;;;;;;;;9.36;94.50;102497.78;5073413;28;20067;-72
2022/05/06 04:26:11;;;;;;;49.90;18.03;;;;;;;9.19;95.89;102493.28;5073946;28;19966;-72
2022/05/06 04:28:36;;;;;;;49.20;17.60;;;;;;;9.12;96.31;102495.84;5073447;28;20032;-72
2022/05/06 04:31:02;;;;;;;31.63;18.50;;;;;;;9.12;95.96;102506.25;5072787;28;20077;-72
2022/05/06 04:33:28;;;;;;;34.42;18.50;;;;;;;9.13;96.25;102515.81;5073514;28;20020;-72
2022/05/06 04:35:55;;;;;;;35.65;18.75;;;;;;;9.09;97.12;102503.63;5073458;28;20042;-72
2022/05/06 04:38:22;;;;;;;57.78;18.83;;;;;;;9.11;97.15;102512.28;5072705;28;20052;-72
2022/05/06 04:40:48;;;;;;;43.95;20.23;;;;;;;9.16;97.12;102503.69;5073386;28;20099;-72
2022/05/06 04:43:14;;;;;;;52.60;18.48;;;;;;;9.14;97.07;102511.47;5073579;28;20028;-72
2022/05/06 04:45:41;;;;;;;30.27;18.95;;;;;;;9.17;97.43;102511.50;5072247;28;20039;-72
2022/05/06 04:48:07;;;;;;;53.75;18.85;;;;;;;9.12;97.28;102515.78;5073240;28;20028;-72
2022/05/06 04:50:33;;;;;;;49.63;18.08;;;;;;;9.03;97.45;102519.19;5073155;28;20044;-72
2022/05/06 04:52:59;;;;;;;30.80;18.17;;;;;;;9.06;97.47;102516.59;5072870;28;20025;-72
2022/05/06 04:55:24;;;;;;;27.90;18.73;;;;;;;9.12;97.82;102523.56;5073349;28;20035;-72
2022/05/06 04:57:49;;;;;;;40.30;18.65;;;;;;;9.12;96.95;102516.66;5072821;28;20055;-72
2022/05/06 05:00:15;;;;;;;52.92;18.73;;;;;;;9.09;96.89;102519.25;5072420;28;20035;-72
2022/05/06 05:02:40;;;;;;;48.15;19.55;;;;;;;8.96;97.76;102526.88;5072521;28;20021;-72
2022/05/06 05:05:06;;;;;;;44.80;19.88;;;;;;;9.01;97.94;102531.28;5073032;28;20084;-72
2022/05/06 05:07:31;;;;;;;49.28;20.05;;;;;;;9.00;98.44;102534.75;5072020;28;20058;-72
2022/05/06 05:09:57;;;;;;;34.00;18.75;;;;;;;9.04;98.43;102528.72;5073257;28;20446;-72
2022/05/06 05:12:24;;;;;;;28.40;18.75;;;;;;;9.15;98.23;102531.41;5073172;28;20024;-72
2022/05/06 05:14:49;;;;;;;30.60;18.95;;;;;;;9.25;98.17;102535.84;5072076;28;20120;-72
2022/05/06 05:17:15;;;;;;;32.60;19.05;;;;;;;9.33;97.91;102538.53;5072831;28;20060;-72
2022/05/06 05:19:40;;;;;;;48.42;17.60;;;;;;;9.32;97.01;102547.22;5072544;28;20051;-72
2022/05/06 05:22:06;;;;;;;29.38;17.50;;;;;;;9.31;97.47;102545.44;5072284;28;20071;-72
2022/05/06 05:24:32;;;;;;;28.33;18.05;;;;;;;9.37;97.32;102537.69;5072657;28;20048;-72
2022/05/06 05:27:00;;;;;;;26.80;17.90;;;;;;;9.49;97.07;102543.00;5072000;28;20610;-72
2022/05/06 05:29:26;;;;;;;33.92;18.58;;;;;;;9.57;96.86;102548.25;5072945;28;20464;-72
2022/05/06 05:31:52;;;;;;;35.78;18.40;;;;;;;9.58;97.09;102553.50;5072517;28;20071;-72
2022/05/06 05:34:17;;;;;;;49.65;18.38;;;;;;;9.61;96.79;102535.31;5072034;28;20020;-72
2022/05/06 05:36:42;;;;;;;42.30;19.08;;;;;;;9.55;97.08;102540.47;5072569;28;20028;-72
2022/05/06 05:39:07;;;;;;;32.72;19.52;;;;;;;9.64;97.89;102538.75;5072834;28;20052;-72
2022/05/06 05:41:33;;;;;;;36.70;19.98;;;;;;;9.74;97.69;102548.38;5071700;28;20407;-72
2022/05/06 05:49:27;;;;;;;;;;;;;;;10.07;94.96;102548.63;5072173;28;20086;-72
2022/05/06 05:51:53;;;;;;;36.15;20.65;;;;;;;10.08;96.48;102550.38;5072246;28;19913;-72
2022/05/06 05:54:18;;;;;;;49.58;21.13;;;;;;;10.11;96.23;102541.69;5072664;28;20021;-72
2022/05/06 05:56:43;;;;;;;32.80;19.85;;;;;;;10.21;95.95;102547.84;5071187;28;20080;-72
2022/05/06 05:59:08;;;;;;;33.00;20.08;;;;;;;10.28;95.32;102542.69;5072514;28;20036;-72
2022/05/06 06:01:33;;;;;;;33.05;20.42;;;;;;;10.38;95.19;102546.19;5072397;28;20434;-72
2022/05/06 06:03:59;;;;;;;61.70;21.50;;;;;;;10.41;94.55;102551.44;5071749;28;20025;-72
2022/05/06 06:06:24;;;;;;;39.10;22.50;;;;;;;10.48;94.87;102549.72;5072452;28;20025;-72
2022/05/06 06:08:50;;;;;;;37.55;21.88;;;;;;;10.58;95.01;102548.03;5072123;28;20103;-72
2022/05/06 06:11:17;;;;;;;40.67;22.30;;;;;;;10.65;94.20;102553.25;5071451;28;20040;-72
2022/05/06 06:13:43;;;;;;;39.90;21.55;;;;;;;10.67;94.16;102548.94;5073191;28;20033;-72
2022/05/06 06:16:08;;;;;;;40.42;22.85;;;;;;;10.75;93.92;102541.97;5075586;28;20024;-72
2022/05/06 06:18:33;;;;;;;46.53;22.98;;;;;;;10.67;93.62;102543.72;5075957;28;20060;-72
2022/05/06 06:20:58;;;;;;;40.10;23.75;;;;;;;10.75;94.12;102536.75;5076189;28;20078;-72
2022/05/06 06:23:24;;;;;;;43.35;23.70;;;;;;;10.86;93.56;102536.81;5075385;28;20785;-72
2022/05/06 06:25:49;;;;;;;40.55;23.55;;;;;;;11.02;93.29;102535.13;5075678;28;20071;-72
2022/05/06 06:28:15;;;;;;;39.42;23.10;;;;;;;11.13;92.46;102537.72;5075920;28;20039;-72
2022/05/06 06:30:40;;;;;;;43.40;23.17;;;;;;;11.22;92.18;102538.59;5074767;28;20035;-72
2022/05/06 06:33:07;;;;;;;40.40;24.38;;;;;;;11.26;91.62;102526.44;5076068;28;20031;-72
2022/05/06 06:35:32;;;;;;;45.70;24.35;;;;;;;11.34;91.45;102534.25;5075617;28;20048;-72
2022/05/06 06:37:58;;;;;;;41.38;24.17;;;;;;;11.45;91.11;102536.00;5075028;28;20063;-72
2022/05/06 06:40:24;;;;;;;43.95;24.17;;;;;;;11.55;90.60;102538.63;5075759;28;20024;-72
2022/05/06 06:42:49;;;;;;;41.35;24.73;;;;;;;11.67;90.91;102525.53;5075400;28;20433;-72
2022/05/06 06:45:14;;;;;;;47.42;25.42;;;;;;;11.77;90.70;102535.13;5075119;28;20027;-72
2022/05/06 06:47:40;;;;;;;42.80;24.55;;;;;;;11.86;90.15;102542.94;5075544;28;20031;-72
2022/05/06 06:50:06;;;;;;;44.60;25.63;;;;;;;11.92;89.42;102534.25;5075620;28;20044;-72
2022/05/06 06:52:31;;;;;;;44.22;25.13;;;;;;;12.03;89.44;102544.66;5074400;28;20039;-72
2022/05/06 06:54:57;;;;;;;41.63;24.55;;;;;;;12.08;88.86;102546.41;5075526;28;20480;-72
2022/05/06 06:57:23;;;;;;;48.63;24.45;;;;;;;12.03;88.91;102547.28;5075105;28;20073;-72
2022/05/06 06:59:48;;;;;;;40.35;24.02;;;;;;;12.06;89.81;102547.28;5074590;28;20029;-72
2022/05/06 07:02:13;;;;;;;38.83;22.90;;;;;;;12.12;89.51;102553.34;5075603;28;20125;-72
2022/05/06 07:04:38;;;;;;;41.47;24.50;;;;;;;12.14;88.83;102555.97;5075294;28;20031;-72
2022/05/06 07:12:31;;;;;;;37.28;21.63;;;;;;;12.28;87.60;102572.50;5074505;28;20303;-72
2022/05/06 07:14:57;;;;;;;38.75;23.95;;;;;;;12.26;87.43;102568.13;5075344;28;20040;-72
2022/05/06 07:17:22;;;;;;;39.20;24.65;;;;;;;12.29;87.53;102570.75;5075259;28;20108;-72
2022/05/06 07:19:48;;;;;;;42.03;24.13;;;;;;;12.29;87.08;102569.00;5074066;28;20078;-72
2022/05/06 07:22:13;;;;;;;39.67;24.83;;;;;;;12.26;87.27;102569.03;5074988;28;20132;-72
2022/05/06 07:24:38;;;;;;;38.97;23.63;;;;;;;12.30;87.66;102569.88;5074374;28;20036;-72
2022/05/06 07:27:04;;;;;;;38.65;23.27;;;;;;;12.45;87.57;102574.19;5074341;28;20051;-72
2022/05/06 07:29:31;;;;;;;39.40;24.23;;;;;;;12.59;85.97;102585.47;5074948;28;20373;-73
2022/05/06 07:31:56;;;;;;;40.47;23.92;;;;;;;12.68;85.57;102589.78;5074813;28;20483;-72
2022/05/06 07:34:22;;;;;;;39.10;23.55;;;;;;;12.68;85.33;102589.78;5074169;28;20025;-73
2022/05/06 07:36:47;;;;;;;38.50;23.25;;;;;;;12.54;85.35;102597.69;5074362;28;20522;-72
2022/05/06 07:39:13;;;;;;;41.22;23.80;;;;;;;12.44;85.28;102593.38;5075036;28;20437;-72
2022/05/06 07:41:40;;;;;;;40.03;23.58;;;;;;;12.36;85.89;102596.88;5073771;28;20031;-72
2022/05/06 07:44:06;;;;;;;40.08;24.55;;;;;;;12.32;86.25;102599.50;5074696;28;20108;-72
2022/05/06 07:46:32;;;;;;;41.58;25.00;;;;;;;12.31;85.97;102597.78;5074294;28;20048;-72
2022/05/06 07:48:58;;;;;;;39.40;23.90;;;;;;;12.38;86.47;102610.81;5073681;28;20439;-72
2022/05/06 07:51:23;;;;;;;39.53;24.67;;;;;;;12.50;85.89;102609.06;5074352;28;20108;-72
2022/05/06 07:53:51;;;;;;;43.65;24.75;;;;;;;12.54;86.52;102600.31;5074011;28;20048;-72
2022/05/06 07:56:17;;;;;;;43.50;25.75;;;;;;;12.62;85.58;102603.75;5073463;28;20052;-73
2022/05/06 07:58:42;;;;;;;38.95;24.42;;;;;;;12.65;85.98;102606.34;5074192;28;20032;-72
2022/05/06 08:01:10;;;;;;;44.97;26.05;;;;;;;12.71;85.81;102610.72;5074349;28;20422;-72
2022/05/06 08:06:20;;;;;;;45.85;25.80;;;;;;;12.72;85.20;102610.72;5074078;28;20052;-72
2022/05/06 08:08:45;;;;;;;48.45;28.58;;;;;;;12.78;85.52;102612.41;5073249;28;20016;-73
2022/05/06 08:11:11;;;;;;;47.45;26.13;;;;;;;12.79;85.32;102619.41;5074184;28;20104;-72
2022/05/06 08:13:36;;;;;;;46.17;25.65;;;;;;;12.78;86.09;102612.41;5073612;28;20499;-72
2022/05/06 08:16:02;;;;;;;40.15;24.38;;;;;;;12.88;85.55;102609.78;5073302;28;20032;-72
2022/05/06 08:18:28;;;;;;;42.50;25.10;;;;;;;13.01;85.16;102613.16;5073919;28;20111;-72
2022/05/06 08:20:53;;;;;;;41.22;25.13;;;;;;;13.11;84.66;102617.50;5073573;28;20028;-73
2022/05/06 08:23:23;;;;;;;44.15;25.60;;;;;;;13.18;84.36;102609.56;5073159;28;20056;-72
2022/05/06 08:25:52;;;;;;;43.28;25.15;;;;;;;13.34;83.07;102617.38;5073589;28;20035;-73
2022/05/06 08:28:19;;;;;;;42.35;25.17;;;;;;;13.53;82.12;102617.25;5070653;28;20028;-72
2022/05/06 08:30:48;;;;;;;40.72;24.85;;;;;;;13.59;80.68;102606.72;5072593;28;20043;-73
2022/05/06 08:33:14;;;;;;;38.65;25.05;;;;;;;13.67;80.70;102615.41;5073522;28;20473;-72
2022/05/06 08:35:40;;;;;;;39.10;24.95;;;;;;;13.75;79.73;102600.47;5073219;28;20024;-72
2022/05/06 08:38:07;;;;;;;40.83;24.83;;;;;;;13.90;80.10;102598.59;5072346;28;20086;-73
2022/05/06 08:40:34;;;;;;;36.92;23.95;;;;;;;14.17;78.63;102605.31;5073364;28;20029;-73
2022/05/06 08:43:00;;;;;;;33.85;22.52;;;;;;;14.23;77.25;102595.63;5073358;28;20491;-73
2022/05/06 08:50:56;;;;;;;35.58;22.55;;;;;;;14.19;78.00;102599.19;5072335;28;20283;-73
2022/05/06 08:53:23;;;;;;;30.52;21.65;;;;;;;14.23;77.36;102589.53;5073524;28;20028;-72
2022/05/06 08:55:55;;;;;;;31.58;21.77;;;;;;;14.23;77.89;102592.16;5072943;28;20112;-73
2022/05/06 08:58:25;;;;;;;33.80;21.95;;;;;;;14.13;77.01;102591.38;5072475;28;20021;-73
2022/05/06 09:00:59;;;;;;;29.92;21.85;;;;;;;13.97;78.78;102592.41;5073117;28;20463;-73
2022/05/06 09:03:25;;;;;;;33.90;22.95;;;;;;;13.97;79.13;102587.16;5073192;28;20031;-73
2022/05/06 09:05:52;;;;;;;35.13;22.98;;;;;;;13.96;78.63;102590.66;5071987;28;20392;-72
2022/05/06 09:08:19;;;;;;;34.53;22.80;;;;;;;14.04;78.92;102583.59;5073002;28;20044;-72
2022/05/06 09:11:04;;;;;;;35.20;23.42;;;;;;;14.21;79.67;102583.41;5072836;28;20027;-73
2022/05/06 09:13:32;;;;;;;33.97;22.77;;;;;;;14.27;77.47;102573.72;5072324;28;20024;-72
2022/05/06 09:16:39;;;;;;;34.67;22.70;;;;;;;14.34;79.45;102577.13;5073101;28;20036;-72
2022/05/06 09:19:25;;;;;;;34.85;22.23;;;;;;;14.38;78.55;102575.34;5061738;28;20037;-73
2022/05/06 09:22:09;;;;;;;29.90;20.40;;;;;;;14.49;78.04;102576.09;5072840;28;20039;-73
2022/05/06 09:24:38;;;;;;;31.88;21.38;;;;;;;14.62;78.63;102582.97;5072787;28;20028;-72
2022/05/06 09:27:14;;;;;;;32.70;20.67;;;;;;;14.58;76.45;102573.38;5072131;28;20085;-73
2022/05/06 09:29:50;;;;;;;31.02;20.10;;;;;;;14.55;76.86;102560.31;5072466;28;20464;-72
2022/05/06 09:32:19;;;;;;;32.72;21.02;;;;;;;14.81;76.41;102566.97;5072905;28;20059;-72
2022/05/06 09:34:52;;;;;;;28.02;20.42;;;;;;;15.05;77.45;102564.00;5071699;28;20025;-72
2022/05/06 09:37:36;;;;;;;27.60;20.40;;;;;;;15.13;75.16;102563.88;5072880;28;20081;-72
2022/05/06 09:40:09;;;;;;;;;;;;;;;15.20;75.42;102560.25;5072820;28;20033;-73
2022/05/06 09:42:37;;;;;;;27.45;18.58;;;;;;;15.14;74.52;102558.63;5072632;28;19919;-72
2022/05/06 09:45:03;;;;;;;28.35;19.10;;;;;;;15.38;75.34;102556.47;5072744;28;20025;-73
2022/05/06 09:47:30;;;;;;;27.40;20.02;;;;;;;15.57;74.49;102560.53;5071855;28;20431;-72
2022/05/06 09:49:55;;;;;;;32.92;19.70;;;;;;;15.71;73.79;102551.59;5075968;28;20020;-73
2022/05/06 09:52:21;;;;;;;38.75;21.08;;;;;;;15.81;76.15;102554.00;5076633;28;20073;-73
2022/05/06 09:54:48;;;;;;;26.40;18.50;;;;;;;16.01;72.07;102555.41;5075785;28;20032;-73
2022/05/06 09:57:15;;;;;;;26.48;19.55;;;;;;;16.05;70.71;102550.03;5076605;28;20040;-73
2022/05/06 09:59:41;;;;;;;28.33;20.67;;;;;;;15.99;73.70;102551.94;5076983;28;20384;-73
2022/05/06 10:02:09;;;;;;;27.08;19.88;;;;;;;16.22;70.14;102562.91;5075730;28;20472;-73
2022/05/06 10:04:36;;;;;;;22.60;17.52;;;;;;;16.51;69.98;102557.03;5076070;28;20484;-73
2022/05/06 10:07:04;;;;;;;23.17;17.45;;;;;;;16.42;68.95;102557.22;5076379;28;20039;-73
2022/05/06 10:09:33;;;;;;;25.60;18.00;;;;;;;16.38;69.66;102552.91;5075817;28;20060;-73
2022/05/06 10:12:01;;;;;;;24.40;17.88;;;;;;;16.44;69.30;102554.56;5076478;28;20040;-73
2022/05/06 10:14:26;;;;;;;24.90;18.38;;;;;;;16.60;69.71;102541.03;5076437;28;20041;-73
2022/05/06 10:16:52;;;;;;;27.20;18.98;;;;;;;17.03;69.91;102540.09;5075227;28;20534;-73
2022/05/06 10:19:44;;;;;;;26.08;18.95;;;;;;;17.23;69.11;102542.28;5076109;28;20035;-73
2022/05/06 10:22:09;;;;;;;24.15;18.65;;;;;;;17.42;67.42;102541.81;5076074;28;20026;-73
2022/05/06 10:24:39;;;;;;;27.58;18.90;;;;;;;17.53;68.26;102535.34;5075097;28;20510;-73
2022/05/06 10:32:25;;;;;;;25.33;19.10;;;;;;;17.41;67.60;102538.31;5076204;28;20020;-73
2022/05/06 10:33:14;;;;;;;23.88;17.58;;;;;;;16.95;67.35;102538.56;5076380;28;20050;-73
2022/05/06 10:35:48;;;;;;;22.08;17.88;;;;;;;17.02;66.93;102538.38;5075574;28;20480;-72
2022/05/06 10:38:18;;;;;;;25.58;17.02;;;;;;;17.09;68.50;102536.44;5075042;28;20029;-73
2022/05/06 10:40:58;;;;;;;24.88;17.60;;;;;;;17.49;67.27;102531.06;5075649;28;20017;-73
2022/05/06 10:43:41;;;;;;;25.63;17.45;;;;;;;17.90;66.15;102528.28;5074997;28;20066;-72
2022/05/06 10:46:09;;;;;;;22.13;15.57;;;;;;;18.05;64.09;102516.41;5075714;28;20036;-73
2022/05/06 10:48:35;;;;;;;21.45;15.88;;;;;;;18.17;63.38;102518.72;5075408;28;20036;-73
2022/05/06 10:51:21;;;;;;;20.58;16.70;;;;;;;18.46;64.38;102526.63;5075069;28;20521;-73
2022/05/06 10:53:46;;;;;;;21.05;15.10;;;;;;;18.68;62.25;102508.38;5075486;28;20044;-73
2022/05/06 10:56:11;;;;;;;17.40;13.23;;;;;;;18.89;61.80;102512.13;5075459;28;20044;-73
2022/05/06 10:58:36;;;;;;;16.17;12.75;;;;;;;19.08;58.60;102504.50;5074373;28;20431;-73
2022/05/06 11:01:02;;;;;;;19.58;14.63;;;;;;;19.38;59.01;102509.66;5074987;28;20031;-73
2022/05/06 11:03:27;;;;;;;17.63;14.10;;;;;;;19.63;58.13;102500.00;5075667;28;20035;-73
2022/05/06 11:05:52;;;;;;;19.42;14.75;;;;;;;19.60;57.14;102499.22;5074180;28;20118;-73
2022/05/06 11:08:21;;;;;;;16.83;13.52;;;;;;;19.81;55.93;102498.47;5075433;28;20059;-73
2022/05/06 11:10:46;;;;;;;16.05;12.25;;;;;;;20.10;55.21;102501.84;5075095;28;20066;-73
2022/05/06 11:13:11;;;;;;;16.05;13.23;;;;;;;20.37;57.18;102494.63;5074537;28;20473;-73
2022/05/06 11:15:37;;;;;;;15.43;12.20;;;;;;;20.32;55.28;102499.25;5074843;28;20068;-73
2022/05/06 11:18:05;;;;;;;13.32;10.85;;;;;;;20.11;54.99;102488.56;5075388;28;20411;-73
2022/05/06 11:20:38;;;;;;;12.93;11.07;;;;;;;20.10;57.37;102496.56;5074264;28;20044;-74
2022/05/06 11:23:08;;;;;;;16.63;13.00;;;;;;;20.03;54.27;102487.13;5075209;28;20036;-73
2022/05/06 11:25:35;;;;;;;15.60;12.32;;;;;;;20.53;54.83;102481.69;5074084;28;20040;-73
2022/05/06 11:28:03;;;;;;;15.30;12.38;;;;;;;21.07;53.57;102491.00;5074864;28;20025;-73
2022/05/06 11:30:31;;;;;;;11.57;10.30;;;;;;;21.61;51.63;102484.28;5075114;28;20032;-73
2022/05/06 11:33:02;;;;;;;13.68;10.55;;;;;;;21.83;51.12;102478.03;5074276;28;20032;-73
2022/05/06 11:35:46;;;;;;;11.90;9.55;;;;;;;21.82;52.07;102476.31;5074924;28;20035;-74
2022/05/06 11:38:12;;;;;;;14.20;10.05;;;;;;;21.63;49.42;102471.81;5074799;28;20119;-73
2022/05/06 11:40:38;;;;;;;12.82;9.55;;;;;;;21.38;49.22;102479.13;5073457;28;20040;-73
2022/05/06 11:43:16;;;;;;;12.30;9.20;;;;;;;20.88;49.12;102479.44;5074864;28;20021;-73
2022/05/06 11:48:25;;;;;;;9.95;8.90;;;;;;;20.37;52.39;102472.59;5074281;28;20541;-73
2022/05/06 11:50:56;;;;;;;10.65;9.18;;;;;;;21.83;51.16;102464.75;5074160;28;20016;-73